PWSweather.com
Personal Weather Stations
Station Observations
EA5BZ
Nuevo Altabix, ElcheES

Nuevo AltabixElcheES

Lat: 38.276, Lon: -0.671

Elevation: 0

Station Type: Davis Vantage Pro 2

http://meteoelche.es

Latest ConditionsUpdated 8:50:00 AM GMT+01:01 Thursday, Dec 12, 2019
Currently Today's Max Today's Min Today's Average
Temperature 54.0°F12.2°C 54.2°F12.3°C 51.5°F10.8°C 53.1°F11.7°C
Dew Point 37.8°F3.2°C 40.2°F4.6°C 36.0°F2.2°C 37.3°F2.9°C
Winds 11.5 mph WSW18.5 kmh WSW 24.3 mph -39.1 kmh - - 11.7 mph 18.8 kmh
Wind Gusts 19.0 mph30.6 kmh 36.0 mph57.9 kmh - -
Humidity 54% 59% 52% 55%
Pressure 30.14 in1020.7 mb 30.20 in1022.7 mb 30.13 in1020.3 mb -
Hour Temp Dew Point Humidity Winds Wind Gusts Pressure Precip Precip Rate Daily Precip Total
08:50 AM 54.0°F12.2°C 37.8°F3.2°C 54% 11.5 mph WSW18.5 kmh WSW 19.0 mph30.6 kmh 30.14 in1020.7 mb 0.00 in0.0 mm 0.00 in0.0 mm 0.00 in0.0 mm
08:45 AM 53.8°F12.1°C 37.9°F3.3°C 55% 10.9 mph WSW17.5 kmh WSW 18.0 mph29.0 kmh 30.14 in1020.7 mb 0.00 in0.0 mm 0.00 in0.0 mm 0.00 in0.0 mm
08:40 AM 53.9°F12.2°C 38.1°F3.4°C 55% 8.8 mph WSW14.2 kmh WSW 13.0 mph20.9 kmh 30.14 in1020.7 mb 0.00 in0.0 mm 0.00 in0.0 mm 0.00 in0.0 mm
08:35 AM 53.9°F12.2°C 38.1°F3.4°C 55% 6.9 mph WSW11.1 kmh WSW 10.0 mph16.1 kmh 30.14 in1020.7 mb 0.00 in0.0 mm 0.00 in0.0 mm 0.00 in0.0 mm
08:30 AM 53.9°F12.2°C 38.1°F3.4°C 55% 6.9 mph SW11.1 kmh SW 11.0 mph17.7 kmh 30.14 in1020.7 mb 0.00 in0.0 mm 0.00 in0.0 mm 0.00 in0.0 mm
08:25 AM 54.0°F12.2°C 38.2°F3.4°C 55% 6.0 mph WSW9.7 kmh WSW 9.0 mph14.5 kmh 30.14 in1020.7 mb 0.00 in0.0 mm 0.00 in0.0 mm 0.00 in0.0 mm
08:20 AM 53.9°F12.2°C 38.2°F3.4°C 55% 6.9 mph WSW11.1 kmh WSW 11.0 mph17.7 kmh 30.14 in1020.7 mb 0.00 in0.0 mm 0.00 in0.0 mm 0.00 in0.0 mm
08:15 AM 53.7°F12.1°C 38.1°F3.4°C 55% 7.4 mph WSW11.9 kmh WSW 10.0 mph16.1 kmh 30.14 in1020.7 mb 0.00 in0.0 mm 0.00 in0.0 mm 0.00 in0.0 mm
08:10 AM 53.6°F12.0°C 38.2°F3.4°C 56% 8.9 mph WSW14.3 kmh WSW 13.0 mph20.9 kmh 30.14 in1020.7 mb 0.00 in0.0 mm 0.00 in0.0 mm 0.00 in0.0 mm
08:05 AM 53.5°F11.9°C 38.2°F3.4°C 56% 8.1 mph SW13.0 kmh SW 12.0 mph19.3 kmh 30.14 in1020.7 mb 0.00 in0.0 mm 0.00 in0.0 mm 0.00 in0.0 mm
08:00 AM 53.5°F11.9°C 38.3°F3.5°C 56% 8.4 mph WSW13.5 kmh WSW 13.0 mph20.9 kmh 30.14 in1020.7 mb 0.00 in0.0 mm 0.00 in0.0 mm 0.00 in0.0 mm
07:55 AM 53.5°F11.9°C 38.4°F3.6°C 56% 8.9 mph WSW14.3 kmh WSW 13.0 mph20.9 kmh 30.14 in1020.7 mb 0.00 in0.0 mm 0.00 in0.0 mm 0.00 in0.0 mm
07:50 AM 53.6°F12.0°C 38.2°F3.4°C 56% 9.6 mph WSW15.4 kmh WSW 14.0 mph22.5 kmh 30.14 in1020.7 mb 0.00 in0.0 mm 0.00 in0.0 mm 0.00 in0.0 mm
07:45 AM 53.6°F12.0°C 38.2°F3.4°C 56% 9.9 mph W15.9 kmh W 14.0 mph22.5 kmh 30.14 in1020.7 mb 0.00 in0.0 mm 0.00 in0.0 mm 0.00 in0.0 mm
07:40 AM 53.5°F11.9°C 38.2°F3.4°C 56% 8.8 mph WSW14.2 kmh WSW 13.0 mph20.9 kmh 30.14 in1020.7 mb 0.00 in0.0 mm 0.00 in0.0 mm 0.00 in0.0 mm
07:35 AM 53.4°F11.9°C 38.1°F3.4°C 56% 9.4 mph WSW15.1 kmh WSW 14.0 mph22.5 kmh 30.14 in1020.7 mb 0.00 in0.0 mm 0.00 in0.0 mm 0.00 in0.0 mm
07:30 AM 53.2°F11.8°C 38.1°F3.4°C 57% 9.4 mph WSW15.1 kmh WSW 15.0 mph24.1 kmh 30.14 in1020.7 mb 0.00 in0.0 mm 0.00 in0.0 mm 0.00 in0.0 mm
07:25 AM 53.0°F11.7°C 38.0°F3.3°C 57% 8.3 mph WSW13.4 kmh WSW 11.0 mph17.7 kmh 30.14 in1020.7 mb 0.00 in0.0 mm 0.00 in0.0 mm 0.00 in0.0 mm
07:20 AM 52.9°F11.6°C 38.1°F3.4°C 57% 7.0 mph W11.3 kmh W 9.0 mph14.5 kmh 30.15 in1021.0 mb 0.00 in0.0 mm 0.00 in0.0 mm 0.00 in0.0 mm
07:15 AM 52.9°F11.6°C 38.1°F3.4°C 57% 3.1 mph W5.0 kmh W 6.0 mph9.7 kmh 30.15 in1021.0 mb 0.00 in0.0 mm 0.00 in0.0 mm 0.00 in0.0 mm
07:10 AM 52.9°F11.6°C 38.1°F3.4°C 57% 2.9 mph W4.7 kmh W 4.0 mph6.4 kmh 30.15 in1021.0 mb 0.00 in0.0 mm 0.00 in0.0 mm 0.00 in0.0 mm
07:05 AM 52.9°F11.6°C 38.0°F3.3°C 57% 5.0 mph W8.0 kmh W 8.0 mph12.9 kmh 30.16 in1021.3 mb 0.00 in0.0 mm 0.00 in0.0 mm 0.00 in0.0 mm
07:00 AM 52.9°F11.6°C 38.0°F3.3°C 57% 5.4 mph W8.7 kmh W 10.0 mph16.1 kmh 30.15 in1021.0 mb 0.00 in0.0 mm 0.00 in0.0 mm 0.00 in0.0 mm
06:55 AM 52.8°F11.6°C 37.9°F3.3°C 57% 4.5 mph WSW7.2 kmh WSW 11.0 mph17.7 kmh 30.15 in1021.0 mb 0.00 in0.0 mm 0.00 in0.0 mm 0.00 in0.0 mm
06:50 AM 52.8°F11.6°C 37.9°F3.3°C 57% 4.9 mph WSW7.9 kmh WSW 9.0 mph14.5 kmh 30.15 in1021.0 mb 0.00 in0.0 mm 0.00 in0.0 mm 0.00 in0.0 mm
06:45 AM 52.9°F11.6°C 38.0°F3.3°C 57% 5.3 mph WSW8.5 kmh WSW 9.0 mph14.5 kmh 30.15 in1021.0 mb 0.00 in0.0 mm 0.00 in0.0 mm 0.00 in0.0 mm
06:40 AM 52.9°F11.6°C 37.9°F3.3°C 57% 7.1 mph WSW11.4 kmh WSW 11.0 mph17.7 kmh 30.15 in1021.0 mb 0.00 in0.0 mm 0.00 in0.0 mm 0.00 in0.0 mm
06:35 AM 52.9°F11.6°C 37.9°F3.3°C 56% 9.4 mph W15.1 kmh W 13.0 mph20.9 kmh 30.15 in1021.0 mb 0.00 in0.0 mm 0.00 in0.0 mm 0.00 in0.0 mm
06:30 AM 52.9°F11.6°C 37.8°F3.2°C 56% 10.1 mph W16.3 kmh W 16.0 mph25.7 kmh 30.15 in1021.0 mb 0.00 in0.0 mm 0.00 in0.0 mm 0.00 in0.0 mm
06:25 AM 52.9°F11.6°C 37.6°F3.1°C 56% 12.7 mph W20.4 kmh W 19.0 mph30.6 kmh 30.15 in1021.0 mb 0.00 in0.0 mm 0.00 in0.0 mm 0.00 in0.0 mm
06:20 AM 53.0°F11.7°C 37.3°F2.9°C 55% 13.4 mph W21.6 kmh W 20.0 mph32.2 kmh 30.15 in1021.0 mb 0.00 in0.0 mm 0.00 in0.0 mm 0.00 in0.0 mm
06:15 AM 52.8°F11.6°C 37.2°F2.9°C 55% 11.8 mph W19.0 kmh W 18.0 mph29.0 kmh 30.14 in1020.7 mb 0.00 in0.0 mm 0.00 in0.0 mm 0.00 in0.0 mm
06:10 AM 52.8°F11.6°C 37.3°F2.9°C 55% 12.1 mph W19.5 kmh W 17.0 mph27.4 kmh 30.15 in1021.0 mb 0.00 in0.0 mm 0.00 in0.0 mm 0.00 in0.0 mm
06:05 AM 52.8°F11.6°C 37.3°F2.9°C 55% 12.8 mph W20.6 kmh W 17.0 mph27.4 kmh 30.16 in1021.3 mb 0.00 in0.0 mm 0.00 in0.0 mm 0.00 in0.0 mm
06:00 AM 52.9°F11.6°C 37.3°F2.9°C 55% 15.0 mph W24.1 kmh W 22.0 mph35.4 kmh 30.16 in1021.3 mb 0.00 in0.0 mm 0.00 in0.0 mm 0.00 in0.0 mm
05:55 AM 53.0°F11.7°C 37.1°F2.8°C 54% 16.1 mph W25.9 kmh W 24.0 mph38.6 kmh 30.16 in1021.3 mb 0.00 in0.0 mm 0.00 in0.0 mm 0.00 in0.0 mm
05:50 AM 53.2°F11.8°C 36.9°F2.7°C 54% 20.5 mph W33.0 kmh W 29.0 mph46.7 kmh 30.16 in1021.3 mb 0.00 in0.0 mm 0.00 in0.0 mm 0.00 in0.0 mm
05:45 AM 53.3°F11.8°C 36.8°F2.7°C 53% 23.0 mph W37.0 kmh W 30.0 mph48.3 kmh 30.15 in1021.0 mb 0.00 in0.0 mm 0.00 in0.0 mm 0.00 in0.0 mm
05:40 AM 53.3°F11.8°C 36.7°F2.6°C 53% 22.6 mph W36.4 kmh W 34.0 mph54.7 kmh 30.14 in1020.7 mb 0.00 in0.0 mm 0.00 in0.0 mm 0.00 in0.0 mm
05:35 AM 53.3°F11.8°C 36.7°F2.6°C 53% 23.0 mph W37.0 kmh W 34.0 mph54.7 kmh 30.13 in1020.3 mb 0.00 in0.0 mm 0.00 in0.0 mm 0.00 in0.0 mm
05:30 AM 53.2°F11.8°C 36.6°F2.6°C 53% 24.3 mph W39.1 kmh W 36.0 mph57.9 kmh 30.13 in1020.3 mb 0.00 in0.0 mm 0.00 in0.0 mm 0.00 in0.0 mm
05:25 AM 53.2°F11.8°C 36.7°F2.6°C 53% 19.3 mph W31.1 kmh W 29.0 mph46.7 kmh 30.14 in1020.7 mb 0.00 in0.0 mm 0.00 in0.0 mm 0.00 in0.0 mm
05:20 AM 53.3°F11.8°C 36.6°F2.6°C 53% 15.9 mph W25.6 kmh W 29.0 mph46.7 kmh 30.14 in1020.7 mb 0.00 in0.0 mm 0.00 in0.0 mm 0.00 in0.0 mm
05:15 AM 53.3°F11.8°C 36.5°F2.5°C 53% 14.1 mph W22.7 kmh W 29.0 mph46.7 kmh 30.14 in1020.7 mb 0.00 in0.0 mm 0.00 in0.0 mm 0.00 in0.0 mm
05:10 AM 53.1°F11.7°C 36.4°F2.4°C 53% 17.1 mph W27.5 kmh W 34.0 mph54.7 kmh 30.15 in1021.0 mb 0.00 in0.0 mm 0.00 in0.0 mm 0.00 in0.0 mm
05:05 AM 52.9°F11.6°C 36.3°F2.4°C 53% 9.6 mph WNW15.4 kmh WNW 21.0 mph33.8 kmh 30.15 in1021.0 mb 0.00 in0.0 mm 0.00 in0.0 mm 0.00 in0.0 mm
05:00 AM 52.6°F11.4°C 36.3°F2.4°C 54% 10.6 mph WNW17.1 kmh WNW 24.0 mph38.6 kmh 30.15 in1021.0 mb 0.00 in0.0 mm 0.00 in0.0 mm 0.00 in0.0 mm
04:55 AM 52.2°F11.2°C 36.3°F2.4°C 55% 12.5 mph W20.1 kmh W 22.0 mph35.4 kmh 30.16 in1021.3 mb 0.00 in0.0 mm 0.00 in0.0 mm 0.00 in0.0 mm
04:50 AM 51.9°F11.1°C 36.3°F2.4°C 55% 9.5 mph WSW15.3 kmh WSW 17.0 mph27.4 kmh 30.16 in1021.3 mb 0.00 in0.0 mm 0.00 in0.0 mm 0.00 in0.0 mm
04:45 AM 51.9°F11.1°C 36.4°F2.4°C 55% 6.7 mph W10.8 kmh W 18.0 mph29.0 kmh 30.17 in1021.7 mb 0.00 in0.0 mm 0.00 in0.0 mm 0.00 in0.0 mm
04:40 AM 51.8°F11.0°C 36.3°F2.4°C 55% 6.5 mph W10.5 kmh W 12.0 mph19.3 kmh 30.17 in1021.7 mb 0.00 in0.0 mm 0.00 in0.0 mm 0.00 in0.0 mm
04:35 AM 51.7°F10.9°C 36.3°F2.4°C 56% 9.7 mph WSW15.6 kmh WSW 17.0 mph27.4 kmh 30.17 in1021.7 mb 0.00 in0.0 mm 0.00 in0.0 mm 0.00 in0.0 mm
04:30 AM 51.6°F10.9°C 36.2°F2.3°C 56% 6.2 mph WSW10.0 kmh WSW 11.0 mph17.7 kmh 30.17 in1021.7 mb 0.00 in0.0 mm 0.00 in0.0 mm 0.00 in0.0 mm
04:25 AM 51.6°F10.9°C 36.2°F2.3°C 56% 6.5 mph SW10.5 kmh SW 17.0 mph27.4 kmh 30.17 in1021.7 mb 0.00 in0.0 mm 0.00 in0.0 mm 0.00 in0.0 mm
04:20 AM 51.5°F10.8°C 36.1°F2.3°C 55% 7.4 mph WSW11.9 kmh WSW 15.0 mph24.1 kmh 30.17 in1021.7 mb 0.00 in0.0 mm 0.00 in0.0 mm 0.00 in0.0 mm
04:15 AM 51.5°F10.8°C 36.1°F2.3°C 55% 7.8 mph WSW12.6 kmh WSW 18.0 mph29.0 kmh 30.17 in1021.7 mb 0.00 in0.0 mm 0.00 in0.0 mm 0.00 in0.0 mm
04:10 AM 51.6°F10.9°C 36.2°F2.3°C 55% 10.6 mph WSW17.1 kmh WSW 21.0 mph33.8 kmh 30.17 in1021.7 mb 0.00 in0.0 mm 0.00 in0.0 mm 0.00 in0.0 mm
04:05 AM 51.6°F10.9°C 36.1°F2.3°C 55% 12.4 mph WSW20.0 kmh WSW 26.0 mph41.8 kmh 30.17 in1021.7 mb 0.00 in0.0 mm 0.00 in0.0 mm 0.00 in0.0 mm
04:00 AM 51.7°F10.9°C 36.1°F2.3°C 55% 13.1 mph WSW21.1 kmh WSW 29.0 mph46.7 kmh 30.17 in1021.7 mb 0.00 in0.0 mm 0.00 in0.0 mm 0.00 in0.0 mm
03:55 AM 51.9°F11.1°C 36.1°F2.3°C 55% 12.8 mph W20.6 kmh W 24.0 mph38.6 kmh 30.17 in1021.7 mb 0.00 in0.0 mm 0.00 in0.0 mm 0.00 in0.0 mm
03:50 AM 52.0°F11.1°C 36.0°F2.2°C 54% 16.7 mph W26.9 kmh W 26.0 mph41.8 kmh 30.17 in1021.7 mb 0.00 in0.0 mm 0.00 in0.0 mm 0.00 in0.0 mm
03:45 AM 52.0°F11.1°C 36.0°F2.2°C 54% 18.4 mph W29.6 kmh W 34.0 mph54.7 kmh 30.16 in1021.3 mb 0.00 in0.0 mm 0.00 in0.0 mm 0.00 in0.0 mm
03:40 AM 51.9°F11.1°C 36.0°F2.2°C 54% 17.3 mph W27.8 kmh W 29.0 mph46.7 kmh 30.17 in1021.7 mb 0.00 in0.0 mm 0.00 in0.0 mm 0.00 in0.0 mm
03:35 AM 51.9°F11.1°C 36.2°F2.3°C 55% 13.3 mph W21.4 kmh W 20.0 mph32.2 kmh 30.17 in1021.7 mb 0.00 in0.0 mm 0.00 in0.0 mm 0.00 in0.0 mm
03:30 AM 51.9°F11.1°C 36.5°F2.5°C 55% 7.3 mph WSW11.7 kmh WSW 16.0 mph25.7 kmh 30.17 in1021.7 mb 0.00 in0.0 mm 0.00 in0.0 mm 0.00 in0.0 mm
03:25 AM 51.9°F11.1°C 36.6°F2.6°C 56% 11.9 mph WSW19.2 kmh WSW 25.0 mph40.2 kmh 30.17 in1021.7 mb 0.00 in0.0 mm 0.00 in0.0 mm 0.00 in0.0 mm
03:20 AM 52.0°F11.1°C 36.7°F2.6°C 56% 13.1 mph W21.1 kmh W 25.0 mph40.2 kmh 30.17 in1021.7 mb 0.00 in0.0 mm 0.00 in0.0 mm 0.00 in0.0 mm
03:15 AM 52.2°F11.2°C 36.7°F2.6°C 55% 11.1 mph WNW17.9 kmh WNW 20.0 mph32.2 kmh 30.17 in1021.7 mb 0.00 in0.0 mm 0.00 in0.0 mm 0.00 in0.0 mm
03:10 AM 52.3°F11.3°C 36.6°F2.6°C 55% 12.0 mph WNW19.3 kmh WNW 21.0 mph33.8 kmh 30.18 in1022.0 mb 0.00 in0.0 mm 0.00 in0.0 mm 0.00 in0.0 mm
03:05 AM 52.2°F11.2°C 36.6°F2.6°C 55% 14.9 mph WNW24.0 kmh WNW 23.0 mph37.0 kmh 30.17 in1021.7 mb 0.00 in0.0 mm 0.00 in0.0 mm 0.00 in0.0 mm
03:00 AM 52.1°F11.2°C 36.8°F2.7°C 56% 13.8 mph WNW22.2 kmh WNW 23.0 mph37.0 kmh 30.17 in1021.7 mb 0.00 in0.0 mm 0.00 in0.0 mm 0.00 in0.0 mm
02:55 AM 52.3°F11.3°C 36.8°F2.7°C 55% 14.1 mph WNW22.7 kmh WNW 21.0 mph33.8 kmh 30.17 in1021.7 mb 0.00 in0.0 mm 0.00 in0.0 mm 0.00 in0.0 mm
02:50 AM 52.6°F11.4°C 36.8°F2.7°C 55% 14.6 mph WNW23.5 kmh WNW 23.0 mph37.0 kmh 30.17 in1021.7 mb 0.00 in0.0 mm 0.00 in0.0 mm 0.00 in0.0 mm
02:45 AM 52.9°F11.6°C 36.6°F2.6°C 54% 14.1 mph WNW22.7 kmh WNW 22.0 mph35.4 kmh 30.18 in1022.0 mb 0.00 in0.0 mm 0.00 in0.0 mm 0.00 in0.0 mm
02:40 AM 53.0°F11.7°C 36.5°F2.5°C 53% 12.6 mph WNW20.3 kmh WNW 20.0 mph32.2 kmh 30.18 in1022.0 mb 0.00 in0.0 mm 0.00 in0.0 mm 0.00 in0.0 mm
02:35 AM 53.1°F11.7°C 36.5°F2.5°C 53% 15.2 mph WNW24.5 kmh WNW 23.0 mph37.0 kmh 30.18 in1022.0 mb 0.00 in0.0 mm 0.00 in0.0 mm 0.00 in0.0 mm
02:30 AM 53.3°F11.8°C 36.5°F2.5°C 53% 14.9 mph NW24.0 kmh NW 22.0 mph35.4 kmh 30.18 in1022.0 mb 0.00 in0.0 mm 0.00 in0.0 mm 0.00 in0.0 mm
02:25 AM 53.4°F11.9°C 36.4°F2.4°C 52% 12.7 mph NW20.4 kmh NW 18.0 mph29.0 kmh 30.18 in1022.0 mb 0.00 in0.0 mm 0.00 in0.0 mm 0.00 in0.0 mm
02:20 AM 53.6°F12.0°C 36.3°F2.4°C 52% 12.0 mph NW19.3 kmh NW 20.0 mph32.2 kmh 30.19 in1022.4 mb 0.00 in0.0 mm 0.00 in0.0 mm 0.00 in0.0 mm
02:15 AM 53.6°F12.0°C 36.3°F2.4°C 52% 9.9 mph WNW15.9 kmh WNW 14.0 mph22.5 kmh 30.19 in1022.4 mb 0.00 in0.0 mm 0.00 in0.0 mm 0.00 in0.0 mm
02:10 AM 53.5°F11.9°C 36.2°F2.3°C 52% 8.3 mph W13.4 kmh W 15.0 mph24.1 kmh 30.19 in1022.4 mb 0.00 in0.0 mm 0.00 in0.0 mm 0.00 in0.0 mm
02:05 AM 53.3°F11.8°C 36.2°F2.3°C 52% 7.0 mph W11.3 kmh W 11.0 mph17.7 kmh 30.19 in1022.4 mb 0.00 in0.0 mm 0.00 in0.0 mm 0.00 in0.0 mm
02:00 AM 53.3°F11.8°C 36.3°F2.4°C 52% 7.8 mph WSW12.6 kmh WSW 12.0 mph19.3 kmh 30.19 in1022.4 mb 0.00 in0.0 mm 0.00 in0.0 mm 0.00 in0.0 mm
01:55 AM 53.3°F11.8°C 36.4°F2.4°C 52% 6.7 mph WSW10.8 kmh WSW 11.0 mph17.7 kmh 30.19 in1022.4 mb 0.00 in0.0 mm 0.00 in0.0 mm 0.00 in0.0 mm
01:50 AM 53.5°F11.9°C 36.4°F2.4°C 52% 7.5 mph WSW12.1 kmh WSW 12.0 mph19.3 kmh 30.19 in1022.4 mb 0.00 in0.0 mm 0.00 in0.0 mm 0.00 in0.0 mm
01:45 AM 53.5°F11.9°C 36.4°F2.4°C 52% 9.3 mph WSW15.0 kmh WSW 14.0 mph22.5 kmh 30.19 in1022.4 mb 0.00 in0.0 mm 0.00 in0.0 mm 0.00 in0.0 mm
01:40 AM 53.6°F12.0°C 36.4°F2.4°C 52% 8.4 mph WSW13.5 kmh WSW 15.0 mph24.1 kmh 30.20 in1022.7 mb 0.00 in0.0 mm 0.00 in0.0 mm 0.00 in0.0 mm
01:35 AM 53.6°F12.0°C 36.5°F2.5°C 52% 8.0 mph WSW12.9 kmh WSW 13.0 mph20.9 kmh 30.20 in1022.7 mb 0.00 in0.0 mm 0.00 in0.0 mm 0.00 in0.0 mm
01:30 AM 53.7°F12.1°C 36.6°F2.6°C 52% 7.9 mph WSW12.7 kmh WSW 13.0 mph20.9 kmh 30.20 in1022.7 mb 0.00 in0.0 mm 0.00 in0.0 mm 0.00 in0.0 mm
01:25 AM 53.8°F12.1°C 36.7°F2.6°C 52% 8.0 mph SW12.9 kmh SW 18.0 mph29.0 kmh 30.20 in1022.7 mb 0.00 in0.0 mm 0.00 in0.0 mm 0.00 in0.0 mm
01:20 AM 53.8°F12.1°C 36.7°F2.6°C 52% 11.4 mph WSW18.3 kmh WSW 25.0 mph40.2 kmh 30.19 in1022.4 mb 0.00 in0.0 mm 0.00 in0.0 mm 0.00 in0.0 mm
01:15 AM 53.7°F12.1°C 36.9°F2.7°C 53% 14.6 mph W23.5 kmh W 24.0 mph38.6 kmh 30.19 in1022.4 mb 0.00 in0.0 mm 0.00 in0.0 mm 0.00 in0.0 mm
01:10 AM 53.5°F11.9°C 37.3°F2.9°C 54% 14.9 mph W24.0 kmh W 29.0 mph46.7 kmh 30.19 in1022.4 mb 0.00 in0.0 mm 0.00 in0.0 mm 0.00 in0.0 mm
01:05 AM 53.6°F12.0°C 37.9°F3.3°C 55% 9.2 mph WSW14.8 kmh WSW 21.0 mph33.8 kmh 30.19 in1022.4 mb 0.00 in0.0 mm 0.00 in0.0 mm 0.00 in0.0 mm
01:00 AM 53.8°F12.1°C 38.0°F3.3°C 55% 11.3 mph W18.2 kmh W 19.0 mph30.6 kmh 30.19 in1022.4 mb 0.00 in0.0 mm 0.00 in0.0 mm 0.00 in0.0 mm
12:55 AM 53.9°F12.2°C 38.1°F3.4°C 55% 12.9 mph W20.8 kmh W 29.0 mph46.7 kmh 30.19 in1022.4 mb 0.00 in0.0 mm 0.00 in0.0 mm 0.00 in0.0 mm
12:50 AM 53.9°F12.2°C 38.3°F3.5°C 55% 18.2 mph WNW29.3 kmh WNW 28.0 mph45.1 kmh 30.19 in1022.4 mb 0.00 in0.0 mm 0.00 in0.0 mm 0.00 in0.0 mm
12:45 AM 54.0°F12.2°C 38.7°F3.7°C 56% 17.6 mph W28.3 kmh W 35.0 mph56.3 kmh 30.18 in1022.0 mb 0.00 in0.0 mm 0.00 in0.0 mm 0.00 in0.0 mm
12:40 AM 54.1°F12.3°C 38.8°F3.8°C 56% 20.0 mph W32.2 kmh W 34.0 mph54.7 kmh 30.18 in1022.0 mb 0.00 in0.0 mm 0.00 in0.0 mm 0.00 in0.0 mm
12:35 AM 54.2°F12.3°C 39.2°F4.0°C 57% 19.9 mph W32.0 kmh W 28.0 mph45.1 kmh 30.19 in1022.4 mb 0.00 in0.0 mm 0.00 in0.0 mm 0.00 in0.0 mm
12:30 AM 54.2°F12.3°C 39.3°F4.1°C 57% 19.3 mph W31.1 kmh W 30.0 mph48.3 kmh 30.19 in1022.4 mb 0.00 in0.0 mm 0.00 in0.0 mm 0.00 in0.0 mm
12:25 AM 54.2°F12.3°C 39.5°F4.2°C 57% 16.6 mph W26.7 kmh W 26.0 mph41.8 kmh 30.20 in1022.7 mb 0.00 in0.0 mm 0.00 in0.0 mm 0.00 in0.0 mm
12:20 AM 54.2°F12.3°C 39.8°F4.3°C 58% 18.5 mph W29.8 kmh W 29.0 mph46.7 kmh 30.20 in1022.7 mb 0.00 in0.0 mm 0.00 in0.0 mm 0.00 in0.0 mm
12:15 AM 54.2°F12.3°C 40.1°F4.5°C 59% 17.7 mph W28.5 kmh W 25.0 mph40.2 kmh 30.20 in1022.7 mb 0.00 in0.0 mm 0.00 in0.0 mm 0.00 in0.0 mm
12:10 AM 54.2°F12.3°C 40.1°F4.5°C 59% 14.2 mph W22.9 kmh W 22.0 mph35.4 kmh 30.20 in1022.7 mb 0.00 in0.0 mm 0.00 in0.0 mm 0.00 in0.0 mm
12:05 AM 54.2°F12.3°C 40.2°F4.6°C 59% 16.2 mph W26.1 kmh W 23.0 mph37.0 kmh 30.20 in1022.7 mb 0.00 in0.0 mm 0.00 in0.0 mm 0.00 in0.0 mm
12:00 AM 54.2°F12.3°C 40.1°F4.5°C 59% 15.7 mph WSW25.3 kmh WSW 25.0 mph40.2 kmh 30.20 in1022.7 mb 0.00 in0.0 mm 0.00 in0.0 mm 0.00 in0.0 mm